Time;durP1;ratioP1;P1;durP2;ratioP2;P2;SDS_P1;SDS_P2;PMS_P1;PMS_P2;Temp;Humidity;BMP_temperature;BMP_pressure;BME280_temperature;BME280_humidity;BME280_pressure;Samples;Min_cycle;Max_cycle;Signal;HPM_P1;HPM_P2
2023/12/10 00:00:55;;;;;;;6.35;5.22;;;3.50;64.40;;;;;;5039174;28;20030;-81
2023/12/10 00:03:21;;;;;;;5.07;4.15;;;3.50;64.40;;;;;;5023776;28;20076;-81
2023/12/10 00:05:47;;;;;;;6.60;4.72;;;3.50;64.40;;;;;;5043816;28;20033;-78
2023/12/10 00:08:13;;;;;;;7.60;5.25;;;3.50;64.40;;;;;;5040459;28;20056;-79
2023/12/10 00:10:39;;;;;;;5.97;4.50;;;3.50;64.40;;;;;;5020451;28;20033;-79
2023/12/10 00:13:04;;;;;;;6.38;5.00;;;3.50;64.40;;;;;;5035930;28;20495;-81
2023/12/10 00:15:30;;;;;;;6.13;4.43;;;3.50;64.40;;;;;;5035760;28;20047;-79
2023/12/10 00:17:56;;;;;;;6.47;4.82;;;3.50;64.40;;;;;;5017739;28;20035;-79
2023/12/10 00:20:22;;;;;;;6.90;4.68;;;3.50;64.30;;;;;;5017410;28;20507;-80
2023/12/10 00:22:48;;;;;;;6.63;4.88;;;3.50;64.30;;;;;;5017812;28;20042;-79
2023/12/10 00:25:14;;;;;;;6.32;4.68;;;3.50;64.30;;;;;;5035850;28;20044;-78
2023/12/10 00:27:40;;;;;;;5.93;4.60;;;3.50;64.30;;;;;;5017584;28;20448;-79
2023/12/10 00:30:07;;;;;;;6.72;4.75;;;3.50;64.30;;;;;;5017487;28;20041;-80
2023/12/10 00:32:32;;;;;;;6.43;4.43;;;3.50;64.30;;;;;;5017336;28;20124;-81
2023/12/10 00:34:58;;;;;;;5.97;4.53;;;3.50;64.30;;;;;;5035907;28;20448;-80
2023/12/10 00:37:24;;;;;;;6.68;4.97;;;3.50;64.30;;;;;;5036065;28;20360;-79
2023/12/10 00:39:50;;;;;;;5.68;4.50;;;3.50;64.30;;;;;;5018482;28;20060;-80
2023/12/10 00:42:15;;;;;;;7.15;5.10;;;3.50;64.40;;;;;;5018339;28;20068;-81
2023/12/10 00:44:42;;;;;;;7.05;5.13;;;3.50;64.30;;;;;;5036127;28;20025;-79
2023/12/10 00:47:07;;;;;;;6.68;4.78;;;3.50;64.30;;;;;;5016768;28;20121;-80
2023/12/10 00:49:33;;;;;;;8.02;5.28;;;3.50;64.30;;;;;;5035150;28;20120;-80
2023/12/10 00:51:59;;;;;;;8.43;5.43;;;3.50;64.30;;;;;;5016182;28;20081;-80
2023/12/10 00:54:25;;;;;;;6.28;5.22;;;3.50;64.30;;;;;;5034712;28;20025;-80
2023/12/10 00:56:51;;;;;;;8.48;4.68;;;3.50;64.30;;;;;;5034897;28;20037;-79
2023/12/10 00:59:16;;;;;;;6.45;4.85;;;3.50;64.30;;;;;;5034727;28;20025;-80
2023/12/10 01:01:42;;;;;;;6.65;4.72;;;3.50;64.30;;;;;;5034684;28;20490;-80
2023/12/10 01:04:08;;;;;;;7.47;5.28;;;3.50;64.30;;;;;;5034491;28;20041;-81
2023/12/10 01:06:34;;;;;;;7.20;4.95;;;3.50;64.30;;;;;;5034470;28;20053;-79
2023/12/10 01:09:00;;;;;;;6.32;4.88;;;3.50;64.30;;;;;;5034733;28;20494;-80
2023/12/10 01:11:26;;;;;;;6.53;4.97;;;3.50;64.30;;;;;;5016233;28;20048;-81
2023/12/10 01:13:52;;;;;;;6.65;5.22;;;3.50;64.30;;;;;;5034577;28;20029;-79
2023/12/10 01:16:18;;;;;;;7.97;5.47;;;3.50;64.30;;;;;;5016605;28;20044;-80
2023/12/10 01:18:43;;;;;;;7.22;5.00;;;3.50;64.30;;;;;;5016557;28;20049;-80
2023/12/10 01:21:09;;;;;;;6.68;5.10;;;3.50;64.30;;;;;;5016993;28;20033;-80
2023/12/10 01:23:38;;;;;;;7.30;4.88;;;3.50;64.30;;;;;;5033762;28;20463;-80
2023/12/10 01:26:06;;;;;;;7.40;5.25;;;3.50;64.30;;;;;;5033883;28;20025;-81
2023/12/10 01:28:33;;;;;;;7.60;5.55;;;3.50;64.30;;;;;;5016637;28;20053;-81
2023/12/10 01:31:00;;;;;;;6.95;5.10;;;3.50;64.30;;;;;;5033861;28;20112;-79
2023/12/10 01:33:25;;;;;;;7.75;5.45;;;3.50;64.30;;;;;;5016471;28;20121;-80
2023/12/10 01:35:51;;;;;;;7.72;5.50;;;3.50;64.90;;;;;;5033780;28;20507;-80
2023/12/10 01:38:17;;;;;;;5.38;4.80;;;3.50;64.40;;;;;;5033500;28;20463;-79
2023/12/10 01:40:43;;;;;;;7.10;5.25;;;3.50;64.30;;;;;;5034456;28;20450;-81
2023/12/10 01:43:09;;;;;;;7.78;5.63;;;3.50;64.40;;;;;;5033612;28;20390;-79
2023/12/10 01:45:35;;;;;;;7.72;5.10;;;3.50;64.30;;;;;;5015969;28;20029;-80
2023/12/10 01:48:04;;;;;;;6.53;5.53;;;3.50;64.40;;;;;;5016380;28;20110;-80
2023/12/10 01:50:33;;;;;;;7.72;5.47;;;3.50;64.30;;;;;;5015639;28;20068;-81
2023/12/10 01:52:59;;;;;;;8.98;5.55;;;3.50;64.40;;;;;;5016230;28;20078;-80
2023/12/10 01:55:25;;;;;;;8.27;5.20;;;3.50;64.40;;;;;;5034193;28;20033;-79
2023/12/10 01:57:52;;;;;;;6.00;4.80;;;3.50;64.40;;;;;;5016135;28;20040;-79
2023/12/10 02:00:21;;;;;;;7.22;5.05;;;3.50;64.40;;;;;;5015027;28;20383;-80
2023/12/10 02:02:47;;;;;;;7.38;5.47;;;3.50;64.40;;;;;;5033638;28;20026;-79
2023/12/10 02:05:13;;;;;;;6.85;5.07;;;3.50;64.40;;;;;;5033842;28;20526;-80
2023/12/10 02:07:44;;;;;;;7.18;5.03;;;3.50;64.50;;;;;;5015307;28;20061;-80
2023/12/10 02:10:10;;;;;;;8.93;5.38;;;3.50;64.50;;;;;;5015979;28;20120;-80
2023/12/10 02:12:36;;;;;;;7.05;5.57;;;3.50;64.50;;;;;;5015730;28;20120;-80
2023/12/10 02:15:17;;;;;;;7.18;4.95;;;3.50;64.50;;;;;;5033444;28;20053;-79
2023/12/10 02:17:44;;;;;;;7.20;5.18;;;3.50;64.50;;;;;;5015916;28;20029;-78
2023/12/10 02:20:14;;;;;;;6.65;4.65;;;3.50;64.40;;;;;;5035521;28;20041;-80
2023/12/10 02:23:01;;;;;;;7.88;5.38;;;3.50;64.40;;;;;;5019194;28;20378;-80
2023/12/10 02:25:38;;;;;;;6.53;5.03;;;3.50;64.50;;;;;;5015272;28;20037;-80
2023/12/10 02:28:05;;;;;;;9.30;5.47;;;3.50;64.40;;;;;;4997188;28;20049;-80
2023/12/10 02:30:32;;;;;;;6.60;4.75;;;3.50;64.40;;;;;;5016256;28;20431;-80
2023/12/10 02:32:58;;;;;;;6.88;4.93;;;3.50;64.40;;;;;;5016199;28;20052;-80
2023/12/10 02:35:26;;;;;;;6.60;5.00;;;3.50;64.50;;;;;;5033949;28;20025;-79
2023/12/10 02:37:52;;;;;;;7.35;5.13;;;3.50;64.50;;;;;;5032887;28;20017;-79
2023/12/10 02:40:18;;;;;;;6.95;5.25;;;3.50;64.50;;;;;;5033379;28;20033;-79
2023/12/10 02:42:45;;;;;;;7.35;5.18;;;3.50;64.40;;;;;;5033528;28;20356;-79
2023/12/10 02:45:11;;;;;;;7.22;4.97;;;3.50;64.40;;;;;;5015824;28;20451;-79
2023/12/10 02:47:37;;;;;;;6.38;5.03;;;3.50;64.50;;;;;;5015678;28;20045;-80
2023/12/10 02:50:03;;;;;;;6.97;5.05;;;3.50;64.50;;;;;;5035710;28;20438;-79
2023/12/10 02:52:29;;;;;;;6.97;5.30;;;3.50;64.50;;;;;;5019573;28;20033;-80
2023/12/10 02:54:55;;;;;;;7.15;5.65;;;3.50;64.50;;;;;;5019651;28;20040;-79
2023/12/10 02:57:21;;;;;;;7.57;5.30;;;3.50;64.50;;;;;;5036986;28;20029;-79
2023/12/10 02:59:47;;;;;;;6.35;4.70;;;3.50;64.50;;;;;;5019829;28;20402;-80
2023/12/10 03:02:13;;;;;;;5.88;4.90;;;3.50;64.50;;;;;;5036115;28;20136;-81
2023/12/10 03:04:39;;;;;;;6.68;5.10;;;3.50;64.50;;;;;;5032461;28;20475;-79
2023/12/10 03:07:04;;;;;;;7.10;4.85;;;3.50;64.50;;;;;;5037219;28;20060;-80
2023/12/10 03:09:31;;;;;;;8.23;5.60;;;3.50;64.50;;;;;;5019311;28;20424;-79
2023/12/10 03:11:57;;;;;;;6.13;4.60;;;3.50;64.50;;;;;;5029565;28;20026;-79
2023/12/10 03:14:23;;;;;;;7.70;5.40;;;3.60;64.50;;;;;;5036140;28;20079;-81
2023/12/10 03:16:49;;;;;;;7.68;5.50;;;3.60;64.50;;;;;;5036334;28;20398;-79
2023/12/10 03:19:15;;;;;;;8.27;5.50;;;3.50;64.40;;;;;;5036614;28;20029;-81
2023/12/10 03:21:41;;;;;;;8.75;5.68;;;3.60;64.50;;;;;;5019063;28;20030;-80
2023/12/10 03:24:07;;;;;;;8.50;5.88;;;3.60;64.50;;;;;;5036494;28;20030;-80
2023/12/10 03:26:33;;;;;;;6.93;4.95;;;3.60;64.40;;;;;;5036030;28;20384;-82
2023/12/10 03:28:58;;;;;;;7.10;4.80;;;3.60;64.40;;;;;;5036687;28;20057;-80
2023/12/10 03:31:24;;;;;;;8.15;5.53;;;3.60;64.50;;;;;;5036580;28;20034;-79
2023/12/10 03:33:50;;;;;;;6.65;5.20;;;3.60;64.50;;;;;;5036965;28;20506;-81
2023/12/10 03:36:17;;;;;;;7.70;5.18;;;3.50;64.50;;;;;;5017900;28;20427;-80
2023/12/10 03:38:43;;;;;;;7.78;5.55;;;3.50;64.50;;;;;;5036269;28;20022;-80
2023/12/10 03:41:09;;;;;;;7.13;5.30;;;3.60;64.60;;;;;;5018741;28;20036;-79
2023/12/10 03:43:35;;;;;;;7.82;5.50;;;3.50;64.50;;;;;;5035983;28;20061;-80
2023/12/10 03:46:00;;;;;;;8.40;5.82;;;3.50;64.60;;;;;;5036571;28;20075;-79
2023/12/10 03:48:26;;;;;;;9.38;5.30;;;3.50;64.50;;;;;;5018655;28;20040;-80
2023/12/10 03:50:52;;;;;;;6.68;4.80;;;3.50;64.60;;;;;;5036172;28;20372;-79
2023/12/10 03:53:18;;;;;;;6.53;5.25;;;3.50;64.60;;;;;;5018385;28;20033;-80
2023/12/10 03:55:44;;;;;;;8.27;5.80;;;3.50;64.60;;;;;;5018471;28;20057;-79
2023/12/10 03:58:09;;;;;;;6.63;5.00;;;3.50;64.70;;;;;;5035961;28;20493;-81
2023/12/10 04:00:35;;;;;;;8.60;6.13;;;3.50;64.70;;;;;;5017504;28;20061;-81
2023/12/10 04:03:01;;;;;;;7.82;5.32;;;3.50;64.70;;;;;;5018396;28;20044;-80
2023/12/10 04:05:27;;;;;;;7.38;5.47;;;3.50;64.70;;;;;;5036295;28;20105;-81
2023/12/10 04:07:52;;;;;;;7.80;5.72;;;3.50;64.70;;;;;;5036173;28;20519;-80
2023/12/10 04:10:18;;;;;;;7.82;5.35;;;3.50;64.70;;;;;;5035850;28;20041;-79
2023/12/10 04:12:44;;;;;;;7.20;4.93;;;3.50;64.70;;;;;;5035621;28;20057;-80
2023/12/10 04:15:10;;;;;;;6.65;4.93;;;3.50;64.80;;;;;;5018168;28;20455;-80
2023/12/10 04:17:36;;;;;;;7.13;5.30;;;3.50;64.80;;;;;;5001699;28;20116;-80
2023/12/10 04:20:03;;;;;;;8.48;5.57;;;3.50;64.80;;;;;;5035900;28;20053;-80
2023/12/10 04:22:29;;;;;;;8.20;5.70;;;3.50;64.80;;;;;;5035923;28;20040;-80
2023/12/10 04:24:54;;;;;;;7.88;5.80;;;3.50;64.80;;;;;;5035539;28;20033;-79
2023/12/10 04:27:23;;;;;;;9.30;5.72;;;3.50;64.80;;;;;;5017487;28;20025;-81
2023/12/10 04:29:49;;;;;;;8.43;5.97;;;3.50;64.80;;;;;;5035647;28;20438;-80
2023/12/10 04:32:15;;;;;;;8.40;5.68;;;3.50;64.80;;;;;;5027959;28;20029;-82
2023/12/10 04:34:41;;;;;;;7.07;4.78;;;3.50;64.80;;;;;;5035616;28;20547;-80
2023/12/10 04:37:07;;;;;;;9.05;6.05;;;3.50;64.90;;;;;;5035400;28;20096;-80
2023/12/10 04:39:33;;;;;;;8.20;5.97;;;3.50;64.80;;;;;;5034564;28;20033;-81
2023/12/10 04:41:59;;;;;;;8.68;6.00;;;3.50;64.80;;;;;;5016984;28;20466;-80
2023/12/10 04:44:24;;;;;;;8.00;5.38;;;3.50;64.90;;;;;;5034909;28;20087;-81
2023/12/10 04:46:51;;;;;;;7.22;5.47;;;3.50;64.90;;;;;;5035097;28;20029;-80
2023/12/10 04:49:17;;;;;;;9.43;5.93;;;3.50;64.90;;;;;;5017566;28;20129;-80
2023/12/10 04:51:42;;;;;;;8.40;5.68;;;3.50;64.90;;;;;;5015000;28;20477;-81
2023/12/10 04:54:08;;;;;;;7.85;5.25;;;3.40;64.80;;;;;;5034868;28;20112;-81
2023/12/10 04:56:34;;;;;;;7.85;5.63;;;3.50;64.90;;;;;;5016750;28;20083;-79
2023/12/10 04:59:00;;;;;;;9.88;6.30;;;3.50;64.90;;;;;;5016951;28;20044;-79
2023/12/10 05:01:27;;;;;;;8.13;5.88;;;3.50;64.90;;;;;;5034556;28;20033;-80
2023/12/10 05:03:52;;;;;;;7.97;5.65;;;3.50;64.90;;;;;;5032598;28;20471;-80
2023/12/10 05:06:18;;;;;;;8.60;5.90;;;3.50;64.90;;;;;;5017195;28;20036;-79
2023/12/10 05:08:44;;;;;;;8.95;6.13;;;3.50;64.90;;;;;;5016460;28;20471;-81
2023/12/10 05:11:09;;;;;;;7.72;5.38;;;3.50;64.90;;;;;;5034039;28;20045;-79
2023/12/10 05:13:35;;;;;;;7.93;5.93;;;3.50;64.90;;;;;;5017108;28;20464;-80
2023/12/10 05:16:03;;;;;;;9.10;6.32;;;3.50;64.90;;;;;;5016613;28;20080;-80
2023/12/10 05:18:29;;;;;;;9.40;6.18;;;3.50;64.90;;;;;;5034771;28;20373;-80
2023/12/10 05:20:55;;;;;;;9.25;6.72;;;3.50;64.90;;;;;;5034284;28;20030;-81
2023/12/10 05:23:21;;;;;;;8.18;6.03;;;3.50;65.00;;;;;;5034488;28;20029;-81
2023/12/10 05:25:47;;;;;;;8.75;6.65;;;3.50;64.90;;;;;;5016596;28;20463;-80
2023/12/10 05:28:12;;;;;;;9.20;6.20;;;3.50;64.90;;;;;;5029427;28;20426;-80
2023/12/10 05:30:38;;;;;;;8.93;5.55;;;3.50;64.90;;;;;;5016691;28;20087;-81
2023/12/10 05:33:04;;;;;;;10.15;6.47;;;3.50;64.90;;;;;;5034609;28;20087;-81
2023/12/10 05:35:30;;;;;;;8.77;6.13;;;3.50;65.00;;;;;;5032788;28;20033;-80
2023/12/10 05:37:56;;;;;;;9.57;5.95;;;3.50;65.00;;;;;;5016231;28;20036;-80
2023/12/10 05:40:25;;;;;;;9.00;6.13;;;3.50;65.00;;;;;;5016119;28;20025;-79
2023/12/10 05:42:51;;;;;;;8.27;6.07;;;3.50;65.00;;;;;;5034310;28;20025;-80
2023/12/10 05:45:17;;;;;;;8.30;5.97;;;3.50;64.90;;;;;;5016280;28;20478;-79
2023/12/10 05:47:43;;;;;;;8.65;5.75;;;3.50;64.90;;;;;;5010136;28;20037;-81
2023/12/10 05:50:09;;;;;;;8.82;6.20;;;3.50;65.00;;;;;;5033244;28;20049;-81
2023/12/10 05:52:35;;;;;;;10.10;6.57;;;3.50;65.00;;;;;;5034710;28;20125;-80
2023/12/10 05:55:01;;;;;;;9.88;6.00;;;3.60;65.00;;;;;;5017043;28;20375;-80
2023/12/10 05:57:27;;;;;;;7.88;5.70;;;3.50;65.00;;;;;;5034212;28;20100;-80
2023/12/10 05:59:53;;;;;;;8.02;5.93;;;3.50;65.00;;;;;;5016601;28;20407;-80
2023/12/10 06:02:21;;;;;;;9.88;6.30;;;3.50;65.00;;;;;;5016904;28;20030;-82
2023/12/10 06:04:47;;;;;;;9.57;6.30;;;3.50;65.20;;;;;;5015907;28;20360;-80
2023/12/10 06:07:13;;;;;;;8.98;5.95;;;3.60;65.00;;;;;;5033613;28;20040;-80
2023/12/10 06:09:39;;;;;;;8.98;6.25;;;3.60;64.90;;;;;;5033689;28;20412;-78
2023/12/10 06:12:05;;;;;;;9.57;6.55;;;3.60;64.90;;;;;;5015706;28;20383;-80
2023/12/10 06:14:31;;;;;;;9.52;6.15;;;3.60;65.00;;;;;;5015702;28;20133;-82
2023/12/10 06:16:57;;;;;;;7.88;6.00;;;3.60;65.00;;;;;;5033186;28;20116;-80
2023/12/10 06:19:23;;;;;;;10.02;6.32;;;3.70;65.00;;;;;;5016724;28;20438;-82
2023/12/10 06:21:48;;;;;;;10.00;5.97;;;3.60;65.00;;;;;;5016003;28;20476;-78
2023/12/10 06:24:14;;;;;;;8.32;6.03;;;3.70;65.00;;;;;;5020389;28;20021;-75
2023/12/10 06:26:40;;;;;;;8.50;6.05;;;3.70;65.00;;;;;;5038748;28;20034;-80
2023/12/10 06:29:06;;;;;;;9.25;5.95;;;3.70;65.00;;;;;;5022935;28;20030;-80
2023/12/10 06:31:32;;;;;;;8.80;5.78;;;3.70;65.00;;;;;;5022172;28;20483;-81
2023/12/10 06:33:58;;;;;;;7.72;5.40;;;3.70;65.00;;;;;;5022472;28;20467;-82
2023/12/10 06:36:23;;;;;;;10.10;6.53;;;3.70;65.00;;;;;;5037609;28;20036;-82
2023/12/10 06:38:49;;;;;;;8.38;5.22;;;3.70;65.00;;;;;;5020015;28;20025;-82
2023/12/10 06:41:15;;;;;;;7.78;5.53;;;3.70;65.00;;;;;;5037882;28;20053;-80
2023/12/10 06:43:41;;;;;;;8.18;6.05;;;3.80;65.10;;;;;;5021368;28;20036;-77
2023/12/10 06:46:06;;;;;;;9.10;6.25;;;3.80;65.10;;;;;;5039750;28;20084;-80
2023/12/10 06:48:33;;;;;;;9.55;6.07;;;3.80;65.10;;;;;;5020045;28;20068;-81
2023/12/10 06:51:01;;;;;;;10.38;5.97;;;3.80;65.00;;;;;;5018883;28;20510;-81
2023/12/10 06:53:27;;;;;;;9.15;5.78;;;3.80;65.00;;;;;;5037248;28;20061;-81
2023/12/10 06:55:53;;;;;;;8.77;5.65;;;3.90;65.10;;;;;;5037101;28;20111;-80
2023/12/10 06:58:19;;;;;;;8.23;5.88;;;3.90;65.10;;;;;;5019101;28;20037;-81
2023/12/10 07:00:44;;;;;;;9.32;5.93;;;3.90;65.10;;;;;;5019144;28;20375;-79
2023/12/10 07:03:10;;;;;;;8.80;6.07;;;3.90;65.20;;;;;;5035861;28;20060;-77
2023/12/10 07:05:36;;;;;;;9.63;6.55;;;3.90;65.20;;;;;;5017725;28;20064;-81
2023/12/10 07:08:02;;;;;;;9.88;6.57;;;3.90;65.10;;;;;;5036342;28;20033;-81
2023/12/10 07:10:28;;;;;;;11.02;7.10;;;4.00;65.80;;;;;;5036604;28;20198;-79
2023/12/10 07:12:54;;;;;;;12.10;7.68;;;4.00;65.30;;;;;;5036533;28;20068;-79
2023/12/10 07:15:20;;;;;;;10.18;7.28;;;4.00;65.30;;;;;;5019063;28;20364;-80
2023/12/10 07:17:46;;;;;;;10.77;7.13;;;4.10;65.30;;;;;;5019100;28;20029;-80
2023/12/10 07:20:12;;;;;;;11.32;7.40;;;4.10;65.20;;;;;;5038902;28;20026;-79
2023/12/10 07:22:38;;;;;;;11.10;6.88;;;4.10;65.20;;;;;;5036469;28;20035;-76
2023/12/10 07:25:04;;;;;;;10.00;6.38;;;4.10;65.20;;;;;;5020085;28;20022;-78
2023/12/10 07:27:31;;;;;;;9.82;6.78;;;4.10;65.10;;;;;;5018865;28;20033;-85
2023/12/10 07:30:08;;;;;;;10.68;6.47;;;4.10;65.10;;;;;;5037247;28;20084;-83
2023/12/10 07:32:36;;;;;;;10.25;6.75;;;4.10;65.10;;;;;;5022373;28;20040;-87
2023/12/10 07:35:03;;;;;;;8.95;5.78;;;4.20;65.20;;;;;;5020481;28;20029;-78
2023/12/10 07:37:29;;;;;;;8.02;5.68;;;4.20;65.20;;;;;;5018527;28;20030;-77
2023/12/10 07:39:55;;;;;;;8.40;5.72;;;4.20;65.20;;;;;;5035789;28;20033;-77
2023/12/10 07:42:21;;;;;;;8.20;5.88;;;4.20;65.20;;;;;;5036285;28;20037;-74
2023/12/10 07:44:47;;;;;;;7.90;5.53;;;4.20;65.30;;;;;;5018456;28;20464;-75
2023/12/10 07:47:13;;;;;;;7.75;5.50;;;4.30;65.30;;;;;;5018500;28;20120;-74
2023/12/10 07:49:38;;;;;;;8.35;5.78;;;4.20;65.30;;;;;;5018127;28;20029;-74
2023/12/10 07:52:04;;;;;;;7.93;5.28;;;4.30;65.30;;;;;;5018321;28;20063;-73
2023/12/10 07:54:30;;;;;;;8.50;5.50;;;4.30;65.30;;;;;;5035597;28;20031;-73
2023/12/10 07:56:56;;;;;;;8.55;5.53;;;4.30;65.30;;;;;;5033956;28;20382;-76
2023/12/10 07:59:22;;;;;;;8.65;5.28;;;4.30;65.20;;;;;;5017285;28;20029;-81
2023/12/10 08:01:48;;;;;;;8.70;5.20;;;4.30;65.20;;;;;;5015240;28;20040;-72
2023/12/10 08:04:13;;;;;;;7.40;5.60;;;4.30;65.20;;;;;;5018502;28;20104;-77
2023/12/10 08:06:39;;;;;;;8.73;6.03;;;4.40;65.30;;;;;;5034676;28;20064;-76
2023/12/10 08:09:05;;;;;;;7.10;5.38;;;4.40;65.30;;;;;;5035426;28;20029;-74
2023/12/10 08:11:31;;;;;;;7.13;4.85;;;4.40;65.30;;;;;;5035296;28;20073;-77
2023/12/10 08:13:57;;;;;;;8.20;5.63;;;4.40;65.30;;;;;;5035558;28;20097;-76
2023/12/10 08:16:23;;;;;;;7.95;5.25;;;4.50;65.30;;;;;;5035344;28;20057;-77
2023/12/10 08:18:50;;;;;;;7.57;5.03;;;4.50;65.30;;;;;;5034874;28;20029;-77
2023/12/10 08:21:16;;;;;;;7.60;5.05;;;4.50;65.20;;;;;;5017404;28;20394;-79
2023/12/10 08:23:42;;;;;;;7.60;5.38;;;4.60;65.20;;;;;;5050203;28;20034;-75
2023/12/10 08:26:08;;;;;;;7.25;5.28;;;4.60;65.20;;;;;;5012620;28;20100;-78
2023/12/10 08:28:34;;;;;;;8.10;5.75;;;4.60;65.20;;;;;;5016925;28;20029;-76
2023/12/10 08:31:00;;;;;;;7.20;4.85;;;4.60;65.20;;;;;;5017095;28;20120;-77
2023/12/10 08:33:26;;;;;;;7.28;5.00;;;4.60;65.10;;;;;;5017502;28;20558;-77
2023/12/10 08:35:51;;;;;;;7.22;5.20;;;4.70;65.20;;;;;;5035354;28;20026;-79
2023/12/10 08:38:17;;;;;;;7.40;5.00;;;4.70;65.10;;;;;;5035113;28;20028;-80
2023/12/10 08:40:43;;;;;;;7.45;5.68;;;4.70;65.10;;;;;;5035228;28;20036;-78
2023/12/10 08:43:09;;;;;;;6.95;5.05;;;4.70;65.00;;;;;;5000672;28;20455;-78
2023/12/10 08:45:35;;;;;;;8.30;5.68;;;4.80;65.00;;;;;;5034767;28;20014;-80
2023/12/10 08:48:01;;;;;;;6.53;5.05;;;4.80;65.10;;;;;;5016804;28;20467;-83
2023/12/10 08:50:29;;;;;;;7.40;5.25;;;4.80;65.10;;;;;;5016582;28;20471;-77
2023/12/10 08:52:55;;;;;;;9.77;6.72;;;4.80;65.10;;;;;;5022798;28;20038;-81
2023/12/10 08:55:21;;;;;;;9.43;6.15;;;4.80;65.10;;;;;;5008720;28;20034;-80
2023/12/10 08:57:46;;;;;;;11.60;7.55;;;4.80;65.10;;;;;;5015017;28;20081;-79
2023/12/10 09:00:13;;;;;;;10.32;7.00;;;4.80;65.10;;;;;;5022744;28;20028;-83
2023/12/10 09:02:39;;;;;;;9.70;6.70;;;4.80;65.10;;;;;;5034372;28;20120;-83
2023/12/10 09:05:05;;;;;;;9.90;6.50;;;4.80;65.10;;;;;;5017143;28;20460;-79
2023/12/10 09:07:31;;;;;;;9.25;6.20;;;4.90;65.10;;;;;;5011508;28;20029;-79
2023/12/10 09:09:59;;;;;;;9.77;6.68;;;4.90;65.10;;;;;;4997349;28;20026;-80
2023/12/10 09:12:28;;;;;;;9.65;6.38;;;4.90;65.00;;;;;;4997320;28;20399;-80
2023/12/10 09:14:54;;;;;;;8.98;6.00;;;4.90;65.10;;;;;;5014688;28;20030;-78
2023/12/10 09:17:21;;;;;;;8.65;5.93;;;5.00;65.10;;;;;;5014355;28;20408;-79
2023/12/10 09:19:47;;;;;;;9.43;6.50;;;5.00;65.10;;;;;;5001378;28;20018;-80
2023/12/10 09:22:13;;;;;;;7.80;5.55;;;5.00;65.00;;;;;;5011478;28;20107;-82
2023/12/10 09:24:39;;;;;;;10.23;5.90;;;5.00;65.00;;;;;;5014136;28;20085;-81
2023/12/10 09:27:06;;;;;;;8.20;5.93;;;5.10;65.10;;;;;;5014229;28;20103;-79
2023/12/10 09:29:38;;;;;;;8.82;6.18;;;5.20;65.00;;;;;;5014619;28;20033;-77
2023/12/10 09:32:06;;;;;;;9.65;6.10;;;5.20;64.90;;;;;;4996996;28;20030;-79
2023/12/10 09:34:32;;;;;;;9.10;5.88;;;5.20;64.70;;;;;;5014444;28;20097;-79
2023/12/10 09:36:58;;;;;;;9.88;6.18;;;5.20;64.70;;;;;;5014932;28;20053;-81
2023/12/10 09:39:24;;;;;;;8.43;5.78;;;5.20;64.70;;;;;;5013996;28;20022;-81
2023/12/10 09:41:50;;;;;;;9.43;6.43;;;5.20;64.70;;;;;;5014483;28;20049;-77
2023/12/10 09:44:16;;;;;;;9.10;6.03;;;5.20;64.70;;;;;;4996316;28;20033;-78
2023/12/10 09:46:42;;;;;;;9.15;6.00;;;5.20;64.80;;;;;;4996242;28;20073;-78
2023/12/10 09:49:07;;;;;;;8.68;5.85;;;5.20;64.80;;;;;;4996445;28;20073;-80
2023/12/10 09:51:33;;;;;;;9.98;6.82;;;5.20;64.80;;;;;;5027800;28;20132;-78
2023/12/10 09:53:59;;;;;;;12.02;7.85;;;5.20;64.80;;;;;;5034154;28;20040;-80
2023/12/10 09:56:28;;;;;;;9.60;6.93;;;5.20;64.80;;;;;;5015807;28;20057;-80
2023/12/10 09:58:53;;;;;;;11.77;7.65;;;5.20;64.80;;;;;;5033289;28;20025;-81
2023/12/10 10:01:19;;;;;;;10.00;6.88;;;5.20;64.80;;;;;;5033052;28;20056;-77
2023/12/10 10:03:45;;;;;;;9.77;6.93;;;5.20;64.80;;;;;;5033045;28;20037;-77
2023/12/10 10:06:11;;;;;;;11.40;7.32;;;5.20;64.80;;;;;;5033973;28;20033;-78
2023/12/10 10:08:37;;;;;;;8.98;6.22;;;5.20;64.80;;;;;;5015986;28;20030;-79
2023/12/10 10:11:05;;;;;;;9.88;6.93;;;5.30;64.90;;;;;;5033353;28;20517;-79
2023/12/10 10:13:33;;;;;;;9.13;6.68;;;5.30;64.80;;;;;;5033515;28;20065;-78
2023/12/10 10:16:10;;;;;;;9.75;6.63;;;5.30;64.90;;;;;;5014518;28;20029;-79
2023/12/10 10:18:45;;;;;;;10.30;7.22;;;5.30;64.80;;;;;;5015651;28;20026;-79
2023/12/10 10:21:11;;;;;;;10.18;6.32;;;5.30;64.80;;;;;;5033298;28;20164;-80
2023/12/10 10:23:36;;;;;;;10.40;6.60;;;5.30;64.80;;;;;;5016566;28;20076;-79
2023/12/10 10:26:02;;;;;;;10.50;6.30;;;5.30;64.80;;;;;;5015695;28;20029;-82
2023/12/10 10:28:29;;;;;;;8.98;6.30;;;5.40;64.80;;;;;;5015660;28;20022;-82
2023/12/10 10:30:57;;;;;;;9.02;6.68;;;5.40;64.80;;;;;;5032969;28;20497;-81
2023/12/10 10:33:25;;;;;;;10.27;6.97;;;5.40;64.80;;;;;;5033110;28;20033;-81
2023/12/10 10:35:53;;;;;;;9.65;6.57;;;5.40;65.40;;;;;;5015701;28;20021;-83
2023/12/10 10:38:27;;;;;;;8.55;6.03;;;5.30;64.80;;;;;;5033292;28;20029;-78
2023/12/10 10:40:55;;;;;;;11.35;7.15;;;5.40;64.90;;;;;;5015869;28;20441;-78
2023/12/10 10:43:21;;;;;;;7.72;6.05;;;5.30;64.80;;;;;;5015570;28;20034;-78
2023/12/10 10:45:47;;;;;;;10.18;6.80;;;5.40;64.90;;;;;;5033412;28;20087;-77
2023/12/10 10:48:13;;;;;;;11.13;7.07;;;5.40;64.90;;;;;;5033015;28;20057;-78
2023/12/10 10:50:40;;;;;;;10.27;7.15;;;5.40;64.90;;;;;;5032640;28;20084;-77
2023/12/10 10:53:07;;;;;;;9.40;6.45;;;5.40;64.90;;;;;;5033332;28;20025;-80
2023/12/10 10:55:33;;;;;;;10.07;6.55;;;5.40;65.00;;;;;;5015487;28;20029;-77
2023/12/10 10:58:19;;;;;;;10.75;6.82;;;5.40;65.00;;;;;;5032696;28;20491;-75
2023/12/10 11:00:44;;;;;;;9.65;6.38;;;5.40;65.00;;;;;;5033347;28;20037;-79
2023/12/10 11:06:01;;;;;;;10.98;7.00;;;5.40;64.90;;;;;;5033893;28;20025;-81
2023/12/10 11:08:30;;;;;;;8.60;5.93;;;5.40;65.00;;;;;;5015920;28;20025;-81
2023/12/10 11:11:00;;;;;;;8.70;6.15;;;5.40;65.00;;;;;;5019080;28;20088;-78
2023/12/10 11:13:45;;;;;;;9.90;6.20;;;5.40;65.00;;;;;;5037387;28;20021;-77
2023/12/10 11:16:11;;;;;;;9.43;6.40;;;5.40;65.00;;;;;;5037577;28;20026;-77
2023/12/10 11:18:51;;;;;;;8.65;6.22;;;5.40;65.00;;;;;;5036996;28;20052;-82
2023/12/10 11:21:17;;;;;;;9.30;6.10;;;5.40;65.00;;;;;;5019084;28;20140;-79
2023/12/10 11:23:45;;;;;;;8.65;5.82;;;5.30;65.00;;;;;;5019425;28;20518;-84
2023/12/10 11:26:11;;;;;;;9.60;6.35;;;5.40;65.10;;;;;;5023081;28;20026;-77
2023/12/10 11:28:37;;;;;;;8.57;6.25;;;5.40;65.10;;;;;;5036889;28;20014;-82
2023/12/10 11:31:03;;;;;;;10.23;6.15;;;5.40;65.10;;;;;;5036972;28;20510;-77
2023/12/10 11:33:29;;;;;;;9.40;6.90;;;5.40;65.10;;;;;;5036518;28;20041;-74
2023/12/10 11:36:00;;;;;;;13.88;8.88;;;5.30;65.10;;;;;;5017903;28;20029;-77
2023/12/10 11:38:26;;;;;;;12.55;8.00;;;5.30;65.20;;;;;;5002904;28;20022;-76
2023/12/10 11:40:55;;;;;;;11.23;7.72;;;5.30;65.20;;;;;;5036019;28;20061;-78
2023/12/10 11:43:21;;;;;;;10.18;7.72;;;5.30;65.30;;;;;;5018065;28;20022;-76
2023/12/10 11:46:22;;;;;;;13.23;7.95;;;5.30;65.30;;;;;;5036392;28;20032;-81
2023/12/10 11:48:50;;;;;;;11.02;6.18;;;5.30;65.40;;;;;;5019394;28;20113;-77
2023/12/10 11:51:19;;;;;;;11.20;7.43;;;5.30;65.40;;;;;;5016022;28;20049;-77
2023/12/10 11:53:46;;;;;;;9.00;6.50;;;5.30;65.40;;;;;;5017754;28;20029;-75
2023/12/10 11:56:12;;;;;;;9.35;6.15;;;5.30;65.30;;;;;;5017887;28;20132;-78
2023/12/10 11:58:38;;;;;;;9.45;6.30;;;5.40;65.40;;;;;;5018006;28;20057;-79
2023/12/10 12:01:07;;;;;;;9.15;6.50;;;5.30;65.30;;;;;;5018419;28;20042;-78
2023/12/10 12:03:34;;;;;;;10.23;6.65;;;5.30;65.40;;;;;;5034767;28;20094;-78
2023/12/10 12:06:00;;;;;;;9.55;6.18;;;5.30;65.40;;;;;;5034365;28;20036;-79
2023/12/10 12:08:27;;;;;;;8.55;6.45;;;5.30;65.40;;;;;;5035189;28;20034;-78
2023/12/10 12:10:57;;;;;;;9.75;6.93;;;5.30;65.50;;;;;;5034450;28;20095;-79
2023/12/10 12:13:24;;;;;;;8.95;6.80;;;5.30;65.50;;;;;;5035115;28;20037;-79
2023/12/10 12:15:51;;;;;;;9.85;6.07;;;5.30;65.50;;;;;;5015638;28;20048;-79
2023/12/10 12:18:17;;;;;;;9.15;6.22;;;5.20;65.60;;;;;;5015219;28;20060;-77
2023/12/10 12:20:44;;;;;;;8.55;6.32;;;5.20;65.60;;;;;;5034238;28;20065;-76
2023/12/10 12:23:11;;;;;;;11.07;6.82;;;5.20;65.60;;;;;;5034060;28;20041;-77
2023/12/10 12:25:37;;;;;;;8.88;6.45;;;5.20;65.70;;;;;;5017528;28;20489;-80
2023/12/10 12:28:09;;;;;;;10.65;6.70;;;5.20;65.70;;;;;;5033848;28;20033;-78
2023/12/10 12:30:36;;;;;;;11.18;7.22;;;5.20;65.70;;;;;;5034678;28;20037;-80
2023/12/10 12:33:02;;;;;;;9.75;6.40;;;5.20;65.70;;;;;;5017616;28;20371;-78
2023/12/10 12:35:28;;;;;;;8.88;6.70;;;5.20;65.80;;;;;;5052400;28;20029;-78
2023/12/10 12:37:54;;;;;;;9.40;6.15;;;5.20;65.80;;;;;;5033803;28;20422;-82
2023/12/10 12:40:20;;;;;;;9.48;6.35;;;5.10;65.80;;;;;;5034748;28;20471;-77
2023/12/10 12:42:48;;;;;;;9.90;6.25;;;5.10;65.90;;;;;;5034833;28;20029;-78
2023/12/10 12:45:18;;;;;;;8.57;6.57;;;5.10;66.00;;;;;;5035474;28;20064;-78
2023/12/10 12:47:44;;;;;;;8.95;6.68;;;5.10;66.00;;;;;;5017499;28;20029;-78
2023/12/10 12:50:14;;;;;;;10.55;6.78;;;5.10;66.10;;;;;;5035030;28;20038;-80
2023/12/10 12:52:39;;;;;;;10.15;7.20;;;5.10;66.10;;;;;;5017751;28;20041;-78
2023/12/10 12:55:06;;;;;;;8.68;6.80;;;5.00;66.10;;;;;;5034747;28;20029;-78